ALK103 VCBI-VRMM
Flight info
| Callsign | ALK103 |
|---|---|
| Flight time | 1h 11m |
| Altitude | 38000 |
| Route | LALUM2D TELIG M512 HOKEY HOKEY1A |
| Aircraft | A20N/M-SDE2E3FGHIRWXY/LB1 |
Departure
| Time | 2026-05-07 22:47 |
|---|---|
| Airport | Bandaranaike International Colombo Airport (VCBI) |
Arrival
| Time | 2026-05-07 23:58 |
|---|---|
| Airport | Velana International Airport (VRMM) |
| Time | Latitude | Longitude | Altitude | Speed | Heading |
|---|---|---|---|---|---|
| 2026-05-07 22:32 | 7.17614 | 79.88567 | 27 ft | 0 kts | 217° |
| 2026-05-07 22:37 | 7.17651 | 79.88595 | 27 ft | 10 kts | 217° |
| 2026-05-07 22:37 | 7.17687 | 79.88644 | 27 ft | 6 kts | 270° |
| 2026-05-07 22:38 | 7.17678 | 79.88676 | 27 ft | 1 kts | 307° |
| 2026-05-07 22:41 | 7.17680 | 79.88673 | 27 ft | 2 kts | 307° |
| 2026-05-07 22:41 | 7.17697 | 79.88649 | 27 ft | 8 kts | 306° |
| 2026-05-07 22:41 | 7.17744 | 79.88587 | 27 ft | 14 kts | 307° |
| 2026-05-07 22:42 | 7.17810 | 79.88500 | 27 ft | 16 kts | 307° |
| 2026-05-07 22:42 | 7.17856 | 79.88421 | 27 ft | 11 kts | 268° |
| 2026-05-07 22:42 | 7.17793 | 79.88355 | 27 ft | 15 kts | 216° |
| 2026-05-07 22:42 | 7.17696 | 79.88281 | 27 ft | 19 kts | 219° |
| 2026-05-07 22:43 | 7.17579 | 79.88190 | 27 ft | 23 kts | 222° |
| 2026-05-07 22:43 | 7.17460 | 79.88101 | 27 ft | 21 kts | 216° |
| 2026-05-07 22:43 | 7.17346 | 79.88013 | 27 ft | 21 kts | 218° |
| 2026-05-07 22:43 | 7.17277 | 79.87961 | 27 ft | 12 kts | 217° |
| 2026-05-07 22:44 | 7.17200 | 79.87902 | 27 ft | 16 kts | 218° |
| 2026-05-07 22:44 | 7.17101 | 79.87827 | 27 ft | 20 kts | 217° |
| 2026-05-07 22:44 | 7.16985 | 79.87738 | 27 ft | 22 kts | 217° |
| 2026-05-07 22:44 | 7.16887 | 79.87664 | 27 ft | 15 kts | 217° |
| 2026-05-07 22:45 | 7.16848 | 79.87583 | 27 ft | 13 kts | 301° |
| 2026-05-07 22:45 | 7.16856 | 79.87570 | 27 ft | 0 kts | 301° |
| 2026-05-07 22:45 | 7.16857 | 79.87568 | 27 ft | 2 kts | 301° |
| 2026-05-07 22:46 | 7.16877 | 79.87536 | 28 ft | 9 kts | 303° |
| 2026-05-07 22:46 | 7.16924 | 79.87480 | 29 ft | 11 kts | 353° |
| 2026-05-07 22:46 | 7.17009 | 79.87530 | 29 ft | 31 kts | 37° |
| 2026-05-07 22:46 | 7.17380 | 79.87815 | 28 ft | 100 kts | 37° |
| 2026-05-07 22:47 | 7.18080 | 79.88349 | 29 ft | 150 kts | 37° |
| 2026-05-07 22:47 | 7.18947 | 79.89008 | 459 ft | 156 kts | 37° |
| 2026-05-07 22:47 | 7.19822 | 79.89668 | 972 ft | 163 kts | 37° |
| 2026-05-07 22:47 | 7.20745 | 79.90360 | 1512 ft | 168 kts | 28° |
| 2026-05-07 22:48 | 7.21893 | 79.90688 | 1942 ft | 180 kts | 349° |
| 2026-05-07 22:48 | 7.23071 | 79.90174 | 2314 ft | 197 kts | 317° |
| 2026-05-07 22:48 | 7.23988 | 79.89080 | 2742 ft | 218 kts | 305° |
| 2026-05-07 22:48 | 7.24867 | 79.87747 | 3334 ft | 239 kts | 303° |
| 2026-05-07 22:49 | 7.25858 | 79.86313 | 3765 ft | 257 kts | 307° |
| 2026-05-07 22:49 | 7.26967 | 79.84900 | 4790 ft | 255 kts | 309° |
| 2026-05-07 22:49 | 7.28068 | 79.83485 | 5789 ft | 259 kts | 308° |
| 2026-05-07 22:49 | 7.29170 | 79.82021 | 6681 ft | 265 kts | 307° |
| 2026-05-07 22:50 | 7.30291 | 79.80532 | 7555 ft | 269 kts | 308° |
| 2026-05-07 22:50 | 7.31435 | 79.79023 | 8431 ft | 273 kts | 308° |
| 2026-05-07 22:50 | 7.32527 | 79.77446 | 9293 ft | 278 kts | 295° |
| 2026-05-07 22:50 | 7.32967 | 79.75548 | 10087 ft | 283 kts | 269° |
| 2026-05-07 22:51 | 7.32524 | 79.73625 | 10861 ft | 286 kts | 242° |
| 2026-05-07 22:51 | 7.31283 | 79.72069 | 11639 ft | 288 kts | 219° |
| 2026-05-07 22:51 | 7.29617 | 79.70788 | 12078 ft | 309 kts | 214° |
| 2026-05-07 22:51 | 7.27808 | 79.69524 | 12319 ft | 333 kts | 214° |
| 2026-05-07 22:52 | 7.25848 | 79.68135 | 12552 ft | 355 kts | 215° |
| 2026-05-07 22:52 | 7.23829 | 79.66646 | 13144 ft | 363 kts | 216° |
| 2026-05-07 22:52 | 7.22015 | 79.65275 | 13805 ft | 366 kts | 216° |
| 2026-05-07 22:52 | 7.20013 | 79.63742 | 14468 ft | 369 kts | 217° |
| 2026-05-07 22:53 | 7.17889 | 79.62269 | 15115 ft | 373 kts | 208° |
| 2026-05-07 22:53 | 7.15513 | 79.61207 | 15774 ft | 376 kts | 197° |
| 2026-05-07 22:53 | 7.12959 | 79.60611 | 16402 ft | 379 kts | 188° |
| 2026-05-07 22:53 | 7.10341 | 79.60185 | 17020 ft | 383 kts | 188° |
| 2026-05-07 22:54 | 7.07705 | 79.59748 | 17626 ft | 386 kts | 189° |
| 2026-05-07 22:54 | 7.05035 | 79.59301 | 18213 ft | 390 kts | 189° |
| 2026-05-07 22:54 | 7.02351 | 79.58851 | 18744 ft | 393 kts | 189° |
| 2026-05-07 22:54 | 6.99639 | 79.58394 | 19275 ft | 396 kts | 189° |
| 2026-05-07 22:55 | 6.96911 | 79.57936 | 19780 ft | 399 kts | 189° |
| 2026-05-07 22:55 | 6.94162 | 79.57473 | 20297 ft | 402 kts | 189° |
| 2026-05-07 22:55 | 6.91391 | 79.57007 | 20806 ft | 405 kts | 189° |
| 2026-05-07 22:55 | 6.88583 | 79.56535 | 21319 ft | 408 kts | 189° |
| 2026-05-07 22:56 | 6.85771 | 79.56063 | 21818 ft | 411 kts | 189° |
| 2026-05-07 22:56 | 6.82962 | 79.55458 | 22292 ft | 415 kts | 198° |
| 2026-05-07 22:56 | 6.80350 | 79.54209 | 22775 ft | 419 kts | 212° |
| 2026-05-07 22:56 | 6.78103 | 79.52319 | 23229 ft | 424 kts | 227° |
| 2026-05-07 22:57 | 6.76245 | 79.50053 | 23628 ft | 427 kts | 231° |
| 2026-05-07 22:57 | 6.74411 | 79.47690 | 24027 ft | 430 kts | 231° |
| 2026-05-07 22:57 | 6.72572 | 79.45312 | 24423 ft | 433 kts | 231° |
| 2026-05-07 22:57 | 6.70708 | 79.42920 | 24805 ft | 435 kts | 231° |
| 2026-05-07 22:58 | 6.68823 | 79.40521 | 25182 ft | 438 kts | 231° |
| 2026-05-07 22:58 | 6.66923 | 79.38113 | 25557 ft | 441 kts | 231° |
| 2026-05-07 22:58 | 6.65009 | 79.35694 | 25917 ft | 444 kts | 231° |
| 2026-05-07 22:58 | 6.63081 | 79.33258 | 26269 ft | 446 kts | 231° |
| 2026-05-07 22:59 | 6.61138 | 79.30805 | 26624 ft | 449 kts | 231° |
| 2026-05-07 22:59 | 6.59190 | 79.28344 | 26964 ft | 452 kts | 231° |
| 2026-05-07 22:59 | 6.57226 | 79.25864 | 27294 ft | 454 kts | 231° |
| 2026-05-07 22:59 | 6.55254 | 79.23374 | 27626 ft | 457 kts | 231° |
| 2026-05-07 23:00 | 6.53269 | 79.20867 | 27944 ft | 459 kts | 231° |
| 2026-05-07 23:00 | 6.51271 | 79.18345 | 28258 ft | 462 kts | 231° |
| 2026-05-07 23:00 | 6.49264 | 79.15813 | 28569 ft | 464 kts | 231° |
| 2026-05-07 23:00 | 6.47246 | 79.13265 | 28867 ft | 467 kts | 231° |
| 2026-05-07 23:01 | 6.45216 | 79.10704 | 29151 ft | 470 kts | 231° |
| 2026-05-07 23:01 | 6.43174 | 79.08127 | 29435 ft | 472 kts | 231° |
| 2026-05-07 23:01 | 6.41123 | 79.05539 | 29728 ft | 474 kts | 231° |
| 2026-05-07 23:01 | 6.39061 | 79.02938 | 29993 ft | 477 kts | 231° |
| 2026-05-07 23:02 | 6.36990 | 79.00326 | 30253 ft | 479 kts | 231° |
| 2026-05-07 23:02 | 6.34910 | 78.97704 | 30519 ft | 481 kts | 231° |
| 2026-05-07 23:02 | 6.32820 | 78.95069 | 30782 ft | 483 kts | 231° |
| 2026-05-07 23:02 | 6.30725 | 78.92429 | 31102 ft | 483 kts | 231° |
| 2026-05-07 23:03 | 6.28739 | 78.89700 | 31459 ft | 483 kts | 237° |
| 2026-05-07 23:03 | 6.27065 | 78.86779 | 31817 ft | 483 kts | 243° |
| 2026-05-07 23:03 | 6.25662 | 78.83715 | 32173 ft | 482 kts | 245° |
| 2026-05-07 23:03 | 6.24285 | 78.80643 | 32526 ft | 482 kts | 245° |
| 2026-05-07 23:04 | 6.22903 | 78.77578 | 32872 ft | 481 kts | 245° |
| 2026-05-07 23:04 | 6.21518 | 78.74515 | 33203 ft | 481 kts | 245° |
| 2026-05-07 23:04 | 6.20137 | 78.71460 | 33539 ft | 480 kts | 245° |
| 2026-05-07 23:04 | 6.18756 | 78.68406 | 33851 ft | 480 kts | 245° |
| 2026-05-07 23:05 | 6.17378 | 78.65356 | 34141 ft | 479 kts | 245° |
| 2026-05-07 23:05 | 6.16004 | 78.62315 | 34426 ft | 478 kts | 245° |
| 2026-05-07 23:05 | 6.14586 | 78.59299 | 34698 ft | 477 kts | 242° |
| 2026-05-07 23:05 | 6.12891 | 78.56442 | 34967 ft | 476 kts | 235° |
| 2026-05-07 23:06 | 6.10909 | 78.53784 | 35223 ft | 475 kts | 230° |
| 2026-05-07 23:06 | 6.08865 | 78.51230 | 35477 ft | 475 kts | 231° |
| 2026-05-07 23:06 | 6.06778 | 78.48604 | 35750 ft | 475 kts | 231° |
| 2026-05-07 23:06 | 6.04721 | 78.46010 | 36017 ft | 474 kts | 231° |
| 2026-05-07 23:07 | 6.02693 | 78.43452 | 36276 ft | 474 kts | 231° |
| 2026-05-07 23:07 | 6.00640 | 78.40864 | 36544 ft | 474 kts | 231° |
| 2026-05-07 23:07 | 5.98561 | 78.38244 | 36804 ft | 474 kts | 231° |
| 2026-05-07 23:07 | 5.96535 | 78.35693 | 37048 ft | 473 kts | 231° |
| 2026-05-07 23:08 | 5.94481 | 78.33107 | 37299 ft | 473 kts | 231° |
| 2026-05-07 23:08 | 5.92404 | 78.30492 | 37542 ft | 473 kts | 231° |
| 2026-05-07 23:08 | 5.90352 | 78.27909 | 37730 ft | 473 kts | 230° |
| 2026-05-07 23:09 | 5.86282 | 78.22787 | 37783 ft | 471 kts | 230° |
| 2026-05-07 23:09 | 5.82196 | 78.17647 | 37792 ft | 471 kts | 230° |
| 2026-05-07 23:10 | 5.78101 | 78.12496 | 37789 ft | 472 kts | 230° |
| 2026-05-07 23:10 | 5.74009 | 78.07351 | 37778 ft | 471 kts | 230° |
| 2026-05-07 23:11 | 5.70074 | 78.02084 | 37787 ft | 472 kts | 237° |
| 2026-05-07 23:11 | 5.67513 | 77.97192 | 37778 ft | 473 kts | 247° |
| 2026-05-07 23:12 | 5.65410 | 77.90929 | 37794 ft | 474 kts | 253° |
| 2026-05-07 23:12 | 5.63488 | 77.84598 | 37793 ft | 474 kts | 252° |
| 2026-05-07 23:13 | 5.61571 | 77.78306 | 37785 ft | 474 kts | 252° |
| 2026-05-07 23:13 | 5.59642 | 77.71972 | 37782 ft | 475 kts | 252° |
| 2026-05-07 23:14 | 5.57711 | 77.65632 | 37776 ft | 475 kts | 252° |
| 2026-05-07 23:14 | 5.55780 | 77.59293 | 37779 ft | 475 kts | 252° |
| 2026-05-07 23:15 | 5.53848 | 77.52952 | 37792 ft | 475 kts | 252° |
| 2026-05-07 23:15 | 5.51915 | 77.46609 | 37791 ft | 475 kts | 252° |
| 2026-05-07 23:16 | 5.49980 | 77.40265 | 37779 ft | 475 kts | 252° |
| 2026-05-07 23:16 | 5.48044 | 77.33920 | 37782 ft | 476 kts | 252° |
| 2026-05-07 23:17 | 5.46106 | 77.27572 | 37788 ft | 475 kts | 252° |
| 2026-05-07 23:17 | 5.44169 | 77.21227 | 37786 ft | 475 kts | 252° |
| 2026-05-07 23:18 | 5.42231 | 77.14882 | 37775 ft | 475 kts | 252° |
| 2026-05-07 23:18 | 5.40293 | 77.08541 | 37781 ft | 475 kts | 252° |
| 2026-05-07 23:19 | 5.38355 | 77.02202 | 37793 ft | 475 kts | 252° |
| 2026-05-07 23:19 | 5.36417 | 76.95867 | 37782 ft | 475 kts | 252° |
| 2026-05-07 23:20 | 5.34480 | 76.89535 | 37787 ft | 475 kts | 252° |
| 2026-05-07 23:20 | 5.32543 | 76.83206 | 37789 ft | 474 kts | 252° |
| 2026-05-07 23:21 | 5.30607 | 76.76886 | 37789 ft | 474 kts | 252° |
| 2026-05-07 23:21 | 5.28673 | 76.70572 | 37787 ft | 473 kts | 252° |
| 2026-05-07 23:22 | 5.26739 | 76.64263 | 37792 ft | 473 kts | 252° |
| 2026-05-07 23:22 | 5.24808 | 76.57963 | 37793 ft | 472 kts | 252° |
| 2026-05-07 23:23 | 5.22878 | 76.51671 | 37792 ft | 472 kts | 252° |
| 2026-05-07 23:23 | 5.20951 | 76.45386 | 37792 ft | 471 kts | 252° |
| 2026-05-07 23:24 | 5.19025 | 76.39108 | 37784 ft | 471 kts | 253° |
| 2026-05-07 23:24 | 5.17099 | 76.32835 | 37781 ft | 470 kts | 253° |
| 2026-05-07 23:25 | 5.15186 | 76.26608 | 37780 ft | 470 kts | 253° |
| 2026-05-07 23:25 | 5.13259 | 76.20346 | 37779 ft | 470 kts | 252° |
| 2026-05-07 23:26 | 5.11333 | 76.14086 | 37777 ft | 470 kts | 252° |
| 2026-05-07 23:26 | 5.09408 | 76.07820 | 37779 ft | 470 kts | 252° |
| 2026-05-07 23:27 | 5.06523 | 75.98420 | 37776 ft | 470 kts | 252° |
| 2026-05-07 23:27 | 5.04595 | 75.92143 | 37774 ft | 471 kts | 252° |
| 2026-05-07 23:28 | 5.02666 | 75.85862 | 37775 ft | 472 kts | 252° |
| 2026-05-07 23:28 | 5.00733 | 75.79572 | 37780 ft | 472 kts | 252° |
| 2026-05-07 23:29 | 4.98797 | 75.73274 | 37791 ft | 473 kts | 252° |
| 2026-05-07 23:29 | 4.96828 | 75.66975 | 37790 ft | 473 kts | 250° |
| 2026-05-07 23:30 | 4.94094 | 75.60985 | 37799 ft | 473 kts | 239° |
| 2026-05-07 23:30 | 4.90802 | 75.55268 | 37807 ft | 473 kts | 239° |
| 2026-05-07 23:31 | 4.87529 | 75.49535 | 37808 ft | 474 kts | 239° |
| 2026-05-07 23:31 | 4.84253 | 75.43800 | 37808 ft | 474 kts | 239° |
| 2026-05-07 23:32 | 4.80972 | 75.38066 | 37817 ft | 474 kts | 239° |
| 2026-05-07 23:32 | 4.77687 | 75.32329 | 37800 ft | 474 kts | 239° |
| 2026-05-07 23:33 | 4.74424 | 75.26629 | 37799 ft | 474 kts | 239° |
| 2026-05-07 23:33 | 4.71140 | 75.20897 | 37801 ft | 474 kts | 239° |
| 2026-05-07 23:34 | 4.67854 | 75.15162 | 37694 ft | 475 kts | 239° |
| 2026-05-07 23:34 | 4.66208 | 75.12289 | 37435 ft | 474 kts | 239° |
| 2026-05-07 23:34 | 4.64567 | 75.09424 | 37181 ft | 474 kts | 239° |
| 2026-05-07 23:35 | 4.62923 | 75.06555 | 36801 ft | 476 kts | 239° |
| 2026-05-07 23:35 | 4.61269 | 75.03669 | 36019 ft | 477 kts | 239° |
| 2026-05-07 23:35 | 4.59615 | 75.00785 | 35133 ft | 476 kts | 239° |
| 2026-05-07 23:35 | 4.57965 | 74.97907 | 34423 ft | 477 kts | 239° |
| 2026-05-07 23:36 | 4.56315 | 74.95029 | 33549 ft | 474 kts | 239° |
| 2026-05-07 23:36 | 4.54675 | 74.92168 | 32704 ft | 475 kts | 239° |
| 2026-05-07 23:36 | 4.53024 | 74.89288 | 31838 ft | 478 kts | 239° |
| 2026-05-07 23:36 | 4.51368 | 74.86401 | 31041 ft | 475 kts | 239° |
| 2026-05-07 23:37 | 4.49744 | 74.83566 | 30459 ft | 463 kts | 239° |
| 2026-05-07 23:37 | 4.48147 | 74.80782 | 29837 ft | 460 kts | 239° |
| 2026-05-07 23:37 | 4.46555 | 74.78007 | 29173 ft | 457 kts | 239° |
| 2026-05-07 23:37 | 4.44979 | 74.75263 | 28598 ft | 453 kts | 239° |
| 2026-05-07 23:38 | 4.43413 | 74.72536 | 27986 ft | 449 kts | 239° |
| 2026-05-07 23:38 | 4.41861 | 74.69834 | 27376 ft | 446 kts | 239° |
| 2026-05-07 23:38 | 4.40319 | 74.67144 | 26780 ft | 443 kts | 239° |
| 2026-05-07 23:38 | 4.38787 | 74.64475 | 26147 ft | 441 kts | 240° |
| 2026-05-07 23:39 | 4.37264 | 74.61821 | 25550 ft | 439 kts | 240° |
| 2026-05-07 23:39 | 4.35745 | 74.59178 | 24954 ft | 436 kts | 240° |
| 2026-05-07 23:39 | 4.34235 | 74.56550 | 24355 ft | 434 kts | 240° |
| 2026-05-07 23:39 | 4.32734 | 74.53938 | 23759 ft | 432 kts | 240° |
| 2026-05-07 23:40 | 4.31240 | 74.51340 | 23115 ft | 430 kts | 241° |
| 2026-05-07 23:40 | 4.29757 | 74.48758 | 22534 ft | 424 kts | 241° |
| 2026-05-07 23:40 | 4.28295 | 74.46213 | 21959 ft | 419 kts | 241° |
| 2026-05-07 23:40 | 4.26846 | 74.43692 | 21363 ft | 415 kts | 241° |
| 2026-05-07 23:41 | 4.25415 | 74.41199 | 20781 ft | 411 kts | 241° |
| 2026-05-07 23:41 | 4.23996 | 74.38729 | 20155 ft | 408 kts | 241° |
| 2026-05-07 23:41 | 4.22588 | 74.36279 | 19610 ft | 404 kts | 241° |
| 2026-05-07 23:41 | 4.21194 | 74.33851 | 19041 ft | 400 kts | 242° |
| 2026-05-07 23:42 | 4.19822 | 74.31463 | 18476 ft | 389 kts | 242° |
| 2026-05-07 23:42 | 4.18489 | 74.29145 | 17888 ft | 378 kts | 242° |
| 2026-05-07 23:42 | 4.17210 | 74.26918 | 17359 ft | 372 kts | 242° |
| 2026-05-07 23:42 | 4.15922 | 74.24678 | 16814 ft | 369 kts | 242° |
| 2026-05-07 23:43 | 4.14648 | 74.22460 | 16286 ft | 366 kts | 242° |
| 2026-05-07 23:43 | 4.13381 | 74.20256 | 15755 ft | 364 kts | 242° |
| 2026-05-07 23:43 | 4.12123 | 74.18068 | 15220 ft | 361 kts | 242° |
| 2026-05-07 23:43 | 4.10874 | 74.15896 | 14700 ft | 359 kts | 242° |
| 2026-05-07 23:44 | 4.09628 | 74.13729 | 14174 ft | 357 kts | 242° |
| 2026-05-07 23:44 | 4.08391 | 74.11581 | 13647 ft | 356 kts | 242° |
| 2026-05-07 23:44 | 4.07162 | 74.09443 | 13122 ft | 352 kts | 242° |
| 2026-05-07 23:44 | 4.05946 | 74.07329 | 12608 ft | 349 kts | 242° |
| 2026-05-07 23:45 | 4.04744 | 74.05239 | 12231 ft | 344 kts | 242° |
| 2026-05-07 23:45 | 4.03544 | 74.03150 | 11799 ft | 348 kts | 242° |
| 2026-05-07 23:45 | 4.02338 | 74.01051 | 11295 ft | 348 kts | 242° |
| 2026-05-07 23:45 | 4.01136 | 73.98960 | 10787 ft | 345 kts | 242° |
| 2026-05-07 23:46 | 3.99941 | 73.96883 | 10305 ft | 342 kts | 242° |
| 2026-05-07 23:46 | 3.98775 | 73.94862 | 10156 ft | 328 kts | 242° |
| 2026-05-07 23:46 | 3.97662 | 73.92928 | 10038 ft | 313 kts | 242° |
| 2026-05-07 23:46 | 3.96602 | 73.91087 | 9812 ft | 298 kts | 242° |
| 2026-05-07 23:47 | 3.95609 | 73.89297 | 9334 ft | 290 kts | 248° |
| 2026-05-07 23:47 | 3.95030 | 73.87427 | 9099 ft | 276 kts | 262° |
| 2026-05-07 23:47 | 3.94912 | 73.85465 | 8954 ft | 290 kts | 271° |
| 2026-05-07 23:47 | 3.94921 | 73.83420 | 8752 ft | 292 kts | 271° |
| 2026-05-07 23:48 | 3.94923 | 73.81419 | 8452 ft | 285 kts | 271° |
| 2026-05-07 23:48 | 3.94922 | 73.79447 | 7928 ft | 282 kts | 271° |
| 2026-05-07 23:48 | 3.94922 | 73.77490 | 7540 ft | 280 kts | 271° |
| 2026-05-07 23:48 | 3.94921 | 73.75578 | 7194 ft | 276 kts | 271° |
| 2026-05-07 23:49 | 3.94920 | 73.73688 | 6838 ft | 267 kts | 271° |
| 2026-05-07 23:49 | 3.94919 | 73.71840 | 6500 ft | 257 kts | 271° |
| 2026-05-07 23:49 | 3.94918 | 73.70083 | 6177 ft | 255 kts | 271° |
| 2026-05-07 23:49 | 3.94918 | 73.68314 | 5844 ft | 253 kts | 271° |
| 2026-05-07 23:50 | 3.94917 | 73.66571 | 5640 ft | 248 kts | 271° |
| 2026-05-07 23:50 | 3.94918 | 73.64750 | 5566 ft | 269 kts | 271° |
| 2026-05-07 23:50 | 3.94917 | 73.62893 | 5461 ft | 261 kts | 271° |
| 2026-05-07 23:50 | 3.94912 | 73.61141 | 5332 ft | 244 kts | 271° |
| 2026-05-07 23:51 | 3.94908 | 73.59443 | 4728 ft | 248 kts | 271° |
| 2026-05-07 23:51 | 3.94904 | 73.57758 | 4577 ft | 235 kts | 271° |
| 2026-05-07 23:51 | 3.94901 | 73.56160 | 4457 ft | 224 kts | 271° |
| 2026-05-07 23:51 | 3.95118 | 73.54676 | 4326 ft | 210 kts | 295° |
| 2026-05-07 23:52 | 3.95986 | 73.53606 | 4224 ft | 191 kts | 324° |
| 2026-05-07 23:52 | 3.97149 | 73.53145 | 4102 ft | 175 kts | 349° |
| 2026-05-07 23:52 | 3.98364 | 73.53115 | 3604 ft | 175 kts | 356° |
| 2026-05-07 23:52 | 3.99532 | 73.53123 | 3330 ft | 158 kts | 356° |
| 2026-05-07 23:53 | 4.00590 | 73.53130 | 3028 ft | 149 kts | 355° |
| 2026-05-07 23:53 | 4.01621 | 73.53129 | 2672 ft | 147 kts | 355° |
| 2026-05-07 23:53 | 4.02635 | 73.53125 | 2300 ft | 145 kts | 355° |
| 2026-05-07 23:53 | 4.03639 | 73.53120 | 1931 ft | 147 kts | 355° |
| 2026-05-07 23:54 | 4.04645 | 73.53116 | 1993 ft | 140 kts | 355° |
| 2026-05-07 23:54 | 4.05606 | 73.53114 | 2005 ft | 138 kts | 355° |
| 2026-05-07 23:54 | 4.06572 | 73.53111 | 2006 ft | 139 kts | 355° |
| 2026-05-07 23:54 | 4.07545 | 73.53111 | 2007 ft | 143 kts | 355° |
| 2026-05-07 23:55 | 4.08539 | 73.53113 | 2003 ft | 141 kts | 355° |
| 2026-05-07 23:55 | 4.09508 | 73.53101 | 2006 ft | 134 kts | 354° |
| 2026-05-07 23:55 | 4.10435 | 73.53082 | 1689 ft | 137 kts | 355° |
| 2026-05-07 23:55 | 4.11385 | 73.53048 | 1314 ft | 135 kts | 356° |
| 2026-05-07 23:56 | 4.12273 | 73.53041 | 1136 ft | 126 kts | 2° |
| 2026-05-07 23:56 | 4.13165 | 73.53097 | 912 ft | 130 kts | 9° |
| 2026-05-07 23:56 | 4.14043 | 73.53153 | 753 ft | 122 kts | 350° |
| 2026-05-07 23:56 | 4.14905 | 73.53184 | 667 ft | 125 kts | 355° |
| 2026-05-07 23:57 | 4.15780 | 73.53168 | 574 ft | 124 kts | 351° |
| 2026-05-07 23:57 | 4.16615 | 73.53129 | 416 ft | 118 kts | 355° |
| 2026-05-07 23:57 | 4.17441 | 73.53079 | 228 ft | 124 kts | 9° |
| 2026-05-07 23:57 | 4.18319 | 73.53089 | 93 ft | 125 kts | 9° |
| 2026-05-07 23:58 | 4.19148 | 73.53113 | 13 ft | 109 kts | 346° |
| 2026-05-07 23:58 | 4.19698 | 73.53099 | 12 ft | 51 kts | 2° |
| 2026-05-07 23:58 | 4.19936 | 73.53097 | 12 ft | 31 kts | 1° |
| 2026-05-07 23:58 | 4.20148 | 73.53092 | 12 ft | 30 kts | 1° |
| 2026-05-07 23:59 | 4.20323 | 73.53085 | 12 ft | 17 kts | 344° |
| 2026-05-07 23:59 | 4.20366 | 73.53030 | 12 ft | 16 kts | 279° |
| 2026-05-07 23:59 | 4.20368 | 73.52993 | 12 ft | 0 kts | 271° |
| 2026-05-08 00:00 | 4.20368 | 73.52990 | 12 ft | 2 kts | 272° |
| 2026-05-08 00:01 | 4.20369 | 73.52956 | 12 ft | 9 kts | 270° |
| 2026-05-08 00:01 | 4.20335 | 73.52901 | 12 ft | 12 kts | 202° |
| 2026-05-08 00:01 | 4.20225 | 73.52897 | 12 ft | 19 kts | 179° |
| 2026-05-08 00:01 | 4.20075 | 73.52900 | 12 ft | 23 kts | 179° |
| 2026-05-08 00:02 | 4.19917 | 73.52903 | 12 ft | 21 kts | 178° |
| 2026-05-08 00:02 | 4.19761 | 73.52905 | 12 ft | 21 kts | 177° |
| 2026-05-08 00:02 | 4.19606 | 73.52908 | 12 ft | 24 kts | 182° |
| 2026-05-08 00:02 | 4.19433 | 73.52911 | 12 ft | 26 kts | 179° |
| 2026-05-08 00:03 | 4.19252 | 73.52914 | 12 ft | 27 kts | 179° |
| 2026-05-08 00:03 | 4.19066 | 73.52917 | 12 ft | 26 kts | 180° |
| 2026-05-08 00:03 | 4.18942 | 73.52908 | 12 ft | 8 kts | 212° |
| 2026-05-08 00:03 | 4.18940 | 73.52899 | 12 ft | 0 kts | 263° |
| 2026-05-08 00:04 | 4.18939 | 73.52896 | 12 ft | 3 kts | 260° |
| 2026-05-08 00:04 | 4.18923 | 73.52865 | 13 ft | 10 kts | 227° |
| 2026-05-08 00:04 | 4.18878 | 73.52840 | 13 ft | 6 kts | 254° |
| 2026-05-08 00:04 | 4.18873 | 73.52791 | 14 ft | 1 kts | 268° |